createdAt,value
2018-09-05T00:00:29.844Z,66.98
2018-09-05T00:02:58.616Z,66.56
2018-09-05T00:05:27.355Z,66.69
2018-09-05T00:07:56.149Z,67.87
2018-09-05T00:10:24.959Z,67.91
2018-09-05T00:12:53.742Z,66.56
2018-09-05T00:15:22.537Z,67.53
2018-09-05T00:17:51.371Z,67.04
2018-09-05T00:20:20.226Z,66.84
2018-09-05T00:22:49.070Z,67.23
2018-09-05T00:25:17.928Z,66.79
2018-09-05T00:27:46.718Z,67.15
2018-09-05T00:30:15.659Z,67.40
2018-09-05T00:32:44.461Z,68.14
2018-09-05T00:35:13.333Z,68.71
2018-09-05T00:37:42.138Z,68.33
2018-09-05T00:40:10.926Z,69.12
2018-09-05T00:42:39.802Z,68.87
2018-09-05T00:45:08.572Z,69.45
2018-09-05T00:47:37.655Z,70.08
2018-09-05T00:50:06.975Z,70.55
2018-09-05T00:52:35.734Z,70.18
2018-09-05T00:55:04.647Z,70.42
2018-09-05T00:57:33.394Z,70.11
2018-09-05T01:00:02.198Z,69.98
2018-09-05T01:02:31.039Z,70.64
2018-09-05T01:05:00.163Z,69.57
2018-09-05T01:07:29.574Z,69.71
2018-09-05T01:09:58.355Z,69.90
2018-09-05T01:12:27.148Z,69.67
2018-09-05T01:14:56.322Z,69.66
2018-09-05T01:17:25.159Z,69.94
2018-09-05T01:19:53.924Z,69.60
2018-09-05T01:22:22.729Z,69.08
2018-09-05T01:24:51.601Z,70.46
2018-09-05T01:27:20.437Z,69.70
2018-09-05T01:29:49.312Z,70.39
2018-09-05T01:32:18.095Z,70.45
2018-09-05T01:34:46.887Z,70.18
2018-09-05T01:37:15.652Z,71.14
2018-09-05T01:39:44.423Z,71.21
2018-09-05T01:42:13.196Z,70.75
2018-09-05T01:44:41.981Z,71.65
2018-09-05T01:47:10.747Z,70.42
2018-09-05T01:49:39.536Z,70.49
2018-09-05T01:52:08.307Z,70.43
2018-09-05T01:54:37.083Z,71.14
2018-09-05T01:57:05.885Z,71.03
2018-09-05T01:59:34.687Z,70.30
2018-09-05T02:02:03.546Z,70.64
2018-09-05T02:04:32.371Z,69.36
2018-09-05T02:07:01.119Z,69.69
2018-09-05T02:09:29.895Z,69.42
2018-09-05T02:11:58.651Z,68.82
2018-09-05T02:14:27.398Z,68.71
2018-09-05T02:16:56.186Z,67.97
2018-09-05T02:19:24.970Z,68.90
2018-09-05T02:21:53.734Z,68.53
2018-09-05T02:24:22.523Z,68.48
2018-09-05T02:26:51.325Z,67.26
2018-09-05T02:29:20.079Z,66.88
2018-09-05T02:31:48.865Z,67.81
2018-09-05T02:34:17.698Z,67.48
2018-09-05T02:36:46.499Z,68.11
2018-09-05T02:39:15.371Z,68.59
2018-09-05T02:41:44.180Z,68.89
2018-09-05T02:44:18.187Z,69.92
2018-09-05T02:46:46.955Z,70.16
2018-09-05T02:49:16.200Z,70.62
2018-09-05T02:51:45.110Z,70.39
2018-09-05T02:54:13.884Z,71.34
2018-09-05T02:56:42.659Z,71.95
2018-09-05T02:59:11.506Z,71.87
2018-09-05T03:01:40.717Z,71.96
2018-09-05T03:04:09.861Z,72.53
2018-09-05T03:06:38.975Z,72.28
2018-09-05T03:09:09.058Z,72.14
2018-09-05T03:11:37.947Z,72.91
2018-09-05T03:14:06.792Z,72.01
2018-09-05T03:16:35.610Z,72.50
2018-09-05T03:19:04.645Z,72.38
2018-09-05T03:21:33.597Z,72.47
2018-09-05T03:24:02.371Z,72.73
2018-09-05T03:26:31.190Z,72.42
2018-09-05T03:28:59.983Z,72.28
2018-09-05T03:31:28.746Z,71.62
2018-09-05T03:33:57.502Z,72.08
2018-09-05T03:36:26.270Z,72.15
2018-09-05T03:38:55.079Z,72.68
2018-09-05T03:41:23.899Z,72.35
2018-09-05T03:43:52.697Z,72.95
2018-09-05T03:46:21.472Z,73.48
2018-09-05T03:48:50.259Z,73.93
2018-09-05T03:51:19.156Z,72.45
2018-09-05T03:53:47.992Z,72.80
2018-09-05T03:56:16.782Z,72.83
2018-09-05T03:58:45.554Z,72.90
2018-09-05T04:01:14.362Z,73.35
2018-09-05T04:03:43.103Z,73.30
2018-09-05T04:06:14.737Z,73.84
2018-09-05T04:08:43.499Z,73.07
2018-09-05T04:11:12.336Z,72.88
2018-09-05T04:13:41.131Z,73.24
2018-09-05T04:16:09.967Z,72.90
2018-09-05T04:18:38.784Z,73.24
2018-09-05T04:21:07.566Z,73.38
2018-09-05T04:23:41.627Z,73.70
2018-09-05T04:26:10.439Z,72.81
2018-09-05T04:28:39.249Z,73.52
2018-09-05T04:31:09.822Z,72.63
2018-09-05T04:33:38.616Z,72.75
2018-09-05T04:36:07.808Z,72.73
2018-09-05T04:38:36.600Z,73.08
2018-09-05T04:41:05.383Z,72.16
2018-09-05T04:43:34.184Z,71.26
2018-09-05T04:46:03.003Z,70.72
2018-09-05T04:48:31.811Z,70.78
2018-09-05T04:51:00.669Z,70.15
2018-09-05T04:53:29.461Z,71.02
2018-09-05T04:55:58.208Z,70.44
2018-09-05T04:58:26.985Z,71.84
2018-09-05T05:00:56.242Z,72.76
2018-09-05T05:03:25.053Z,72.06
2018-09-05T05:05:53.925Z,72.73
2018-09-05T05:08:22.861Z,72.55
2018-09-05T05:10:51.624Z,73.36
2018-09-05T05:13:20.410Z,73.49
2018-09-05T05:15:49.195Z,73.95
2018-09-05T05:18:18.047Z,73.59
2018-09-05T05:20:46.835Z,73.87
2018-09-05T05:23:15.665Z,73.61
2018-09-05T05:25:44.456Z,73.58
2018-09-05T05:28:13.250Z,73.49
2018-09-05T05:30:42.066Z,74.14
2018-09-05T05:33:10.831Z,74.75
2018-09-05T05:35:39.624Z,74.18
2018-09-05T05:38:08.397Z,74.67
2018-09-05T05:40:37.233Z,74.33
2018-09-05T05:43:06.749Z,74.83
2018-09-05T05:45:35.603Z,73.65
2018-09-05T05:48:04.425Z,74.05
2018-09-05T05:50:33.217Z,73.43
2018-09-05T05:53:01.976Z,72.99
2018-09-05T05:55:30.760Z,73.12
2018-09-05T05:57:59.520Z,73.79
2018-09-05T06:00:28.476Z,73.26
2018-09-05T06:02:57.309Z,73.02
2018-09-05T06:05:26.101Z,72.35
2018-09-05T06:07:54.885Z,73.36
2018-09-05T06:10:26.707Z,71.73
2018-09-05T06:12:57.328Z,72.14
2018-09-05T06:15:26.617Z,71.51
2018-09-05T06:17:55.530Z,71.65
2018-09-05T06:20:24.589Z,71.04
2018-09-05T06:22:53.334Z,71.10
2018-09-05T06:25:22.626Z,70.45
2018-09-05T06:27:51.521Z,70.25
2018-09-05T06:30:20.503Z,70.04
2018-09-05T06:32:49.860Z,70.89
2018-09-05T06:35:18.654Z,70.62
2018-09-05T06:37:47.430Z,70.19
2018-09-05T06:40:16.232Z,70.55
2018-09-05T06:42:45.020Z,69.60
2018-09-05T06:45:13.999Z,69.27
2018-09-05T06:47:42.916Z,68.98
2018-09-05T06:50:11.732Z,69.63
2018-09-05T06:52:40.596Z,69.70
2018-09-05T06:55:09.406Z,69.27
2018-09-05T06:57:38.274Z,69.10
2018-09-05T07:00:07.722Z,68.93
2018-09-05T07:02:36.593Z,67.40
2018-09-05T07:05:05.456Z,66.99
2018-09-05T07:07:34.271Z,67.12
2018-09-05T07:10:03.130Z,66.74
2018-09-05T07:12:32.056Z,66.27
2018-09-05T07:15:00.848Z,66.49
2018-09-05T07:17:29.693Z,66.30
2018-09-05T07:19:58.616Z,65.24
2018-09-05T07:22:27.383Z,65.62
2018-09-05T07:24:56.189Z,65.52
2018-09-05T07:27:25.204Z,65.06
2018-09-05T07:29:54.151Z,65.04
2018-09-05T07:32:22.988Z,64.44
2018-09-05T07:34:51.812Z,65.13
2018-09-05T07:37:20.634Z,65.08
2018-09-05T07:39:49.399Z,66.37
2018-09-05T07:42:18.307Z,65.54
2018-09-05T07:44:47.183Z,64.66
2018-09-05T07:47:16.042Z,64.12
2018-09-05T07:49:44.840Z,64.15
2018-09-05T07:52:13.724Z,63.77
2018-09-05T07:54:42.542Z,64.31
2018-09-05T07:57:11.344Z,64.06
2018-09-05T07:59:40.383Z,63.40
2018-09-05T08:02:09.250Z,62.37
2018-09-05T08:04:38.071Z,62.68
2018-09-05T08:07:06.902Z,62.06
2018-09-05T08:09:35.707Z,62.45
2018-09-05T08:12:04.520Z,62.36
2018-09-05T08:14:33.265Z,62.44
2018-09-05T08:17:02.042Z,61.37
2018-09-05T08:19:30.861Z,60.68
2018-09-05T08:21:59.670Z,59.08
2018-09-05T08:24:28.498Z,59.86
2018-09-05T08:26:57.467Z,58.66
2018-09-05T08:29:26.343Z,58.04
2018-09-05T08:31:55.098Z,57.94
2018-09-05T08:34:24.126Z,58.07
2018-09-05T08:36:53.584Z,57.42
2018-09-05T08:39:22.303Z,57.00
2018-09-05T08:41:51.452Z,57.86
2018-09-05T08:44:20.578Z,56.77
2018-09-05T08:46:51.028Z,56.44
2018-09-05T08:49:20.012Z,57.33
2018-09-05T08:51:48.845Z,58.34
2018-09-05T08:54:17.635Z,57.49
2018-09-05T08:56:46.501Z,58.92
2018-09-05T08:59:15.292Z,58.21
2018-09-05T09:01:44.101Z,58.28
2018-09-05T09:04:12.931Z,59.02
2018-09-05T09:06:41.776Z,57.76
2018-09-05T09:09:11.795Z,58.16
2018-09-05T09:11:40.690Z,57.54
2018-09-05T09:14:10.594Z,56.02
2018-09-05T09:16:39.461Z,56.49
2018-09-05T09:19:08.255Z,56.57
2018-09-05T09:21:37.035Z,56.56
2018-09-05T09:24:06.159Z,56.30
2018-09-05T09:26:34.970Z,57.67
2018-09-05T09:29:03.836Z,55.98
2018-09-05T09:31:32.654Z,56.28
2018-09-05T09:34:01.530Z,55.69
2018-09-05T09:36:30.349Z,55.80
2018-09-05T09:38:59.142Z,55.24
2018-09-05T09:41:27.942Z,54.28
2018-09-05T09:43:56.777Z,53.14
2018-09-05T09:46:25.682Z,53.50
2018-09-05T09:48:54.673Z,53.28
2018-09-05T09:51:23.649Z,54.10
2018-09-05T09:53:53.396Z,55.06
2018-09-05T09:56:22.668Z,54.20
2018-09-05T09:58:51.457Z,54.83
2018-09-05T10:01:25.650Z,54.75
2018-09-05T10:03:59.670Z,54.06
2018-09-05T10:06:33.844Z,52.99
2018-09-05T10:09:07.718Z,52.53
2018-09-05T10:12:41.728Z,54.44
2018-09-05T10:15:17.620Z,53.02
2018-09-05T10:17:50.542Z,53.77
2018-09-05T10:20:19.338Z,54.64
2018-09-05T10:22:48.165Z,53.57
2018-09-05T10:25:16.982Z,53.71
2018-09-05T10:27:45.838Z,53.37
2018-09-05T10:30:14.616Z,53.61
2018-09-05T10:32:43.446Z,52.99
2018-09-05T10:35:12.217Z,52.58
2018-09-05T10:37:41.069Z,53.03
2018-09-05T10:40:09.827Z,52.40
2018-09-05T10:42:38.682Z,51.95
2018-09-05T10:45:07.517Z,52.23
2018-09-05T10:47:36.348Z,52.61
2018-09-05T10:50:05.206Z,51.70
2018-09-05T10:52:34.022Z,52.18
2018-09-05T10:55:02.818Z,51.38
2018-09-05T10:57:31.634Z,50.80
2018-09-05T11:00:00.424Z,50.44
2018-09-05T11:02:29.186Z,50.07
2018-09-05T11:04:58.000Z,49.39
2018-09-05T11:07:26.758Z,48.27
2018-09-05T11:09:55.576Z,49.11
2018-09-05T11:12:24.403Z,47.75
2018-09-05T11:14:53.163Z,47.90
2018-09-05T11:17:21.935Z,47.02
2018-09-05T11:19:50.775Z,47.64
2018-09-05T11:22:19.570Z,46.66
2018-09-05T11:24:48.318Z,47.09
2018-09-05T11:27:17.095Z,47.68
2018-09-05T11:29:45.875Z,48.79
2018-09-05T11:32:14.658Z,49.04
2018-09-05T11:34:43.445Z,48.38
2018-09-05T11:37:12.259Z,48.58
2018-09-05T11:39:41.294Z,48.15
2018-09-05T11:42:10.117Z,47.46
2018-09-05T11:44:38.940Z,47.02
2018-09-05T11:47:07.716Z,46.47
2018-09-05T11:49:36.709Z,45.72
2018-09-05T11:52:05.664Z,46.28
2018-09-05T11:54:35.405Z,46.29
2018-09-05T11:57:04.196Z,43.71
2018-09-05T11:59:33.941Z,44.89
2018-09-05T12:02:02.752Z,44.20
2018-09-05T12:04:31.518Z,45.53
2018-09-05T12:07:00.452Z,44.49
2018-09-05T12:09:29.263Z,44.75
2018-09-05T12:11:58.149Z,44.37
2018-09-05T12:14:27.110Z,43.80
2018-09-05T12:16:55.946Z,44.41
2018-09-05T12:19:24.726Z,44.50
2018-09-05T12:21:53.486Z,43.32
2018-09-05T12:24:22.346Z,43.80
2018-09-05T12:26:51.144Z,43.05
2018-09-05T12:29:20.021Z,42.13
2018-09-05T12:31:48.902Z,42.10
2018-09-05T12:34:17.674Z,42.63
2018-09-05T12:36:46.477Z,43.26
2018-09-05T12:39:15.511Z,42.60
2018-09-05T12:41:44.299Z,42.47
2018-09-05T12:44:13.484Z,43.21
2018-09-05T12:46:42.317Z,43.46
2018-09-05T12:49:11.095Z,41.60
2018-09-05T12:51:39.994Z,40.71
2018-09-05T12:54:09.646Z,41.69
2018-09-05T12:56:38.415Z,42.51
2018-09-05T12:59:07.229Z,43.45
2018-09-05T13:01:36.173Z,43.37
2018-09-05T13:04:05.069Z,44.41
2018-09-05T13:06:34.016Z,45.08
2018-09-05T13:09:02.897Z,45.30
2018-09-05T13:11:31.772Z,45.43
2018-09-05T13:14:00.753Z,43.66
2018-09-05T13:16:29.559Z,43.61
2018-09-05T13:18:58.362Z,42.21
2018-09-05T13:21:27.192Z,41.44
2018-09-05T13:23:56.010Z,42.95
2018-09-05T13:26:25.017Z,42.87
2018-09-05T13:28:53.873Z,42.83
2018-09-05T13:31:22.635Z,42.91
2018-09-05T13:33:51.427Z,43.03
2018-09-05T13:36:20.284Z,43.49
2018-09-05T13:38:49.135Z,42.23
2018-09-05T13:41:17.998Z,42.68
2018-09-05T13:43:46.788Z,41.78
2018-09-05T13:46:15.553Z,43.00
2018-09-05T13:48:44.330Z,43.86
2018-09-05T13:51:13.184Z,44.03
2018-09-05T13:53:41.974Z,44.53
2018-09-05T13:56:11.140Z,45.06
2018-09-05T13:58:39.918Z,44.58
2018-09-05T14:01:08.750Z,45.40
2018-09-05T14:03:37.533Z,46.03
2018-09-05T14:06:06.338Z,46.62
2018-09-05T14:08:35.158Z,46.36
2018-09-05T14:11:04.107Z,46.17
2018-09-05T14:13:32.976Z,47.12
2018-09-05T14:16:01.933Z,47.60
2018-09-05T14:18:30.693Z,47.68
2018-09-05T14:20:59.500Z,48.06
2018-09-05T14:23:28.350Z,49.22
2018-09-05T14:25:57.182Z,48.20
2018-09-05T14:28:26.058Z,49.68
2018-09-05T14:30:54.952Z,50.41
2018-09-05T14:33:23.793Z,50.73
2018-09-05T14:35:52.596Z,50.19
2018-09-05T14:38:21.353Z,50.45
2018-09-05T14:40:50.352Z,50.76
2018-09-05T14:43:19.189Z,51.05
2018-09-05T14:45:47.946Z,51.81
2018-09-05T14:48:16.772Z,51.33
2018-09-05T14:50:45.788Z,51.96
2018-09-05T14:53:14.567Z,53.33
2018-09-05T14:55:43.354Z,53.01
2018-09-05T14:58:12.143Z,53.54
2018-09-05T15:00:40.979Z,53.53
2018-09-05T15:03:09.753Z,54.88
2018-09-05T15:05:38.550Z,54.09
2018-09-05T15:08:07.305Z,54.88
2018-09-05T15:10:36.127Z,54.55
2018-09-05T15:13:07.841Z,54.26
2018-09-05T15:15:36.724Z,54.51
2018-09-05T15:18:06.283Z,53.98
2018-09-05T15:20:35.086Z,54.65
2018-09-05T15:23:07.183Z,54.24
2018-09-05T15:25:36.219Z,52.70
2018-09-05T15:28:05.070Z,53.31
2018-09-05T15:30:33.836Z,52.01
2018-09-05T15:33:02.614Z,52.52
2018-09-05T15:35:31.412Z,51.04
2018-09-05T15:38:00.253Z,51.64
2018-09-05T15:40:29.026Z,52.12
2018-09-05T15:43:04.514Z,53.05
2018-09-05T15:45:33.300Z,53.20
2018-09-05T15:48:02.241Z,53.62
2018-09-05T15:50:31.102Z,53.10
2018-09-05T15:52:59.912Z,54.04
2018-09-05T15:55:28.759Z,54.15
2018-09-05T15:57:57.523Z,54.32
2018-09-05T16:00:26.385Z,54.91
2018-09-05T16:02:55.174Z,54.83
2018-09-05T16:05:24.119Z,55.30
2018-09-05T16:07:52.923Z,54.63
2018-09-05T16:10:21.744Z,55.84
2018-09-05T16:12:50.741Z,56.13
2018-09-05T16:15:19.672Z,56.23
2018-09-05T16:17:48.545Z,56.12
2018-09-05T16:20:17.428Z,55.88
2018-09-05T16:22:46.315Z,56.12
2018-09-05T16:25:15.140Z,56.65
2018-09-05T16:27:44.043Z,56.47
2018-09-05T16:30:15.426Z,56.91
2018-09-05T16:32:44.272Z,57.05
2018-09-05T16:35:13.141Z,57.42
2018-09-05T16:37:41.997Z,56.81
2018-09-05T16:40:10.790Z,56.91
2018-09-05T16:42:39.785Z,57.17
2018-09-05T16:45:08.992Z,58.03
2018-09-05T16:47:37.789Z,58.73
2018-09-05T16:50:06.647Z,58.59
2018-09-05T16:52:35.464Z,58.79
2018-09-05T16:55:04.474Z,58.32
2018-09-05T16:57:33.263Z,58.81
2018-09-05T17:00:02.102Z,59.31
2018-09-05T17:02:30.928Z,59.10
2018-09-05T17:04:59.707Z,58.89
2018-09-05T17:07:28.519Z,59.25
2018-09-05T17:09:57.323Z,59.28
2018-09-05T17:12:26.204Z,59.17
2018-09-05T17:14:55.047Z,59.83
2018-09-05T17:17:23.906Z,58.91
2018-09-05T17:19:52.970Z,59.61
2018-09-05T17:22:21.830Z,59.87
2018-09-05T17:24:50.885Z,60.09
2018-09-05T17:27:19.843Z,59.69
2018-09-05T17:29:48.826Z,59.66
2018-09-05T17:32:17.668Z,60.65
2018-09-05T17:34:46.681Z,60.28
2018-09-05T17:37:15.555Z,59.66
2018-09-05T17:39:44.362Z,60.15
2018-09-05T17:42:13.151Z,60.31
2018-09-05T17:44:41.952Z,59.81
2018-09-05T17:47:10.813Z,60.71
2018-09-05T17:49:39.661Z,60.61
2018-09-05T17:52:08.522Z,60.13
2018-09-05T17:54:37.439Z,60.72
2018-09-05T17:57:06.376Z,60.46
2018-09-05T17:59:35.153Z,60.87
2018-09-05T18:02:03.930Z,60.28
2018-09-05T18:04:32.722Z,60.41
2018-09-05T18:07:01.545Z,60.19
2018-09-05T18:09:30.426Z,59.96
2018-09-05T18:11:59.629Z,59.03
2018-09-05T18:14:28.461Z,57.86
2018-09-05T18:16:57.410Z,58.34
2018-09-05T18:19:26.240Z,58.55
2018-09-05T18:21:55.059Z,58.14
2018-09-05T18:24:23.968Z,57.08
2018-09-05T18:26:52.924Z,57.25
2018-09-05T18:29:21.774Z,57.03
2018-09-05T18:31:50.544Z,57.50
2018-09-05T18:34:19.346Z,57.57
2018-09-05T18:36:55.586Z,57.30
2018-09-05T18:39:24.388Z,57.31
2018-09-05T18:41:53.201Z,57.74
2018-09-05T18:44:22.020Z,57.36
2018-09-05T18:46:50.809Z,58.27
2018-09-05T18:49:19.693Z,58.22
2018-09-05T18:51:48.609Z,59.21
2018-09-05T18:54:17.374Z,58.73
2018-09-05T18:56:46.119Z,59.65
2018-09-05T18:59:15.031Z,59.92
2018-09-05T19:01:43.865Z,60.01
2018-09-05T19:04:12.628Z,61.28
2018-09-05T19:06:41.475Z,60.79
2018-09-05T19:09:11.875Z,61.31
2018-09-05T19:11:41.082Z,61.65
2018-09-05T19:14:11.192Z,62.84
2018-09-05T19:16:40.176Z,63.34
2018-09-05T19:19:08.987Z,63.87
2018-09-05T19:21:37.892Z,64.38
2018-09-05T19:24:06.740Z,64.32
2018-09-05T19:26:35.518Z,65.14
2018-09-05T19:29:04.342Z,65.79
2018-09-05T19:31:33.294Z,65.91
2018-09-05T19:34:02.083Z,65.61
2018-09-05T19:36:30.883Z,66.23
2018-09-05T19:38:59.729Z,66.42
2018-09-05T19:41:28.687Z,65.86
2018-09-05T19:43:57.493Z,66.55
2018-09-05T19:46:26.231Z,66.53
2018-09-05T19:48:55.246Z,66.47
2018-09-05T19:51:24.090Z,66.89
2018-09-05T19:53:52.883Z,66.36
2018-09-05T19:56:21.805Z,66.95
2018-09-05T19:58:50.624Z,67.16
2018-09-05T20:01:19.402Z,67.30
2018-09-05T20:03:48.205Z,67.20
2018-09-05T20:06:17.076Z,67.63
2018-09-05T20:08:45.932Z,67.26
2018-09-05T20:11:14.868Z,67.86
2018-09-05T20:13:43.710Z,68.34
2018-09-05T20:16:12.517Z,67.39
2018-09-05T20:18:41.364Z,67.44
2018-09-05T20:21:10.121Z,67.67
2018-09-05T20:23:39.374Z,67.67
2018-09-05T20:26:08.199Z,67.79
2018-09-05T20:28:37.004Z,68.34
2018-09-05T20:31:05.888Z,68.04
2018-09-05T20:33:34.745Z,68.56
2018-09-05T20:36:03.551Z,68.18
2018-09-05T20:38:32.344Z,67.62
2018-09-05T20:41:01.118Z,67.70
2018-09-05T20:43:29.929Z,67.44
2018-09-05T20:45:58.909Z,67.27
2018-09-05T20:48:27.744Z,67.44
2018-09-05T20:50:56.502Z,67.38
2018-09-05T20:53:25.394Z,67.61
2018-09-05T20:55:54.181Z,67.16
2018-09-05T20:58:22.982Z,67.70
2018-09-05T21:00:51.764Z,67.50
2018-09-05T21:03:20.557Z,68.30
2018-09-05T21:05:49.311Z,67.97
2018-09-05T21:08:18.215Z,68.11
2018-09-05T21:10:47.118Z,68.24
2018-09-05T21:13:15.915Z,67.63
2018-09-05T21:15:44.712Z,67.34
2018-09-05T21:18:13.638Z,67.05
2018-09-05T21:20:42.584Z,67.07
2018-09-05T21:23:11.386Z,67.84
2018-09-05T21:25:40.210Z,67.74
2018-09-05T21:28:09.033Z,67.34
2018-09-05T21:30:37.819Z,66.26
2018-09-05T21:33:06.617Z,66.77
2018-09-05T21:35:35.643Z,66.63
2018-09-05T21:38:04.423Z,67.24
2018-09-05T21:40:33.201Z,66.63
2018-09-05T21:43:01.978Z,66.49
2018-09-05T21:45:30.789Z,66.90
2018-09-05T21:47:59.570Z,66.69
2018-09-05T21:50:28.353Z,66.19
2018-09-05T21:52:57.144Z,66.27
2018-09-05T21:55:26.041Z,66.87
2018-09-05T21:57:54.924Z,67.28
2018-09-05T22:00:23.750Z,67.31
2018-09-05T22:02:52.530Z,66.50
2018-09-05T22:05:21.386Z,66.68
2018-09-05T22:07:50.166Z,67.39
2018-09-05T22:10:19.212Z,67.18
2018-09-05T22:12:47.993Z,67.20
2018-09-05T22:15:16.831Z,67.16
2018-09-05T22:17:45.647Z,67.59
2018-09-05T22:20:14.482Z,67.40
2018-09-05T22:22:43.239Z,67.45
2018-09-05T22:25:12.056Z,66.20
2018-09-05T22:27:40.920Z,67.46
2018-09-05T22:30:09.793Z,66.54
2018-09-05T22:32:38.597Z,67.37
2018-09-05T22:35:07.459Z,66.95
2018-09-05T22:37:36.252Z,66.70
2018-09-05T22:40:05.172Z,66.55
2018-09-05T22:42:33.926Z,66.21
2018-09-05T22:45:13.780Z,67.02
2018-09-05T22:48:56.835Z,66.27
2018-09-05T22:52:07.029Z,66.67
2018-09-05T22:54:51.844Z,66.29
2018-09-05T22:57:42.855Z,66.69
2018-09-05T23:00:29.749Z,66.50
2018-09-05T23:05:13.483Z,66.46
2018-09-05T23:08:22.318Z,67.31
2018-09-05T23:11:02.516Z,67.36
2018-09-05T23:13:42.458Z,66.97
2018-09-05T23:17:22.435Z,68.03
2018-09-05T23:20:10.288Z,67.76
2018-09-05T23:22:50.148Z,68.02
2018-09-05T23:25:19.000Z,68.26
2018-09-05T23:27:47.830Z,67.87
2018-09-05T23:30:16.689Z,68.53
2018-09-05T23:32:45.456Z,67.86
2018-09-05T23:35:14.205Z,68.53
2018-09-05T23:37:43.033Z,68.52
2018-09-05T23:40:11.816Z,69.25
2018-09-05T23:42:40.670Z,69.38
2018-09-05T23:45:09.514Z,69.23
2018-09-05T23:47:38.383Z,69.68
2018-09-05T23:50:07.614Z,70.38
2018-09-05T23:52:36.423Z,70.06
2018-09-05T23:55:05.696Z,70.99
2018-09-05T23:57:34.464Z,70.54
